createdAt,value
2022-12-01T00:01:06.023Z,78.67
2022-12-01T00:03:33.269Z,78.63
2022-12-01T00:06:05.901Z,78.36
2022-12-01T00:08:33.840Z,78.40
2022-12-01T00:11:08.685Z,77.78
2022-12-01T00:13:35.625Z,78.41
2022-12-01T00:16:15.377Z,78.26
2022-12-01T00:18:42.281Z,78.12
2022-12-01T00:21:16.038Z,78.54
2022-12-01T00:23:47.434Z,78.59
2022-12-01T00:26:15.030Z,78.21
2022-12-01T00:28:41.759Z,78.21
2022-12-01T00:31:12.147Z,78.49
2022-12-01T00:33:39.488Z,78.36
2022-12-01T00:36:07.375Z,78.64
2022-12-01T00:38:34.489Z,78.68
2022-12-01T00:41:00.955Z,78.51
2022-12-01T00:43:27.364Z,78.68
2022-12-01T00:45:53.867Z,78.44
2022-12-01T00:48:20.764Z,78.21
2022-12-01T00:50:47.506Z,78.22
2022-12-01T00:53:14.947Z,77.65
2022-12-01T00:55:41.314Z,78.03
2022-12-01T00:58:07.778Z,78.16
2022-12-01T01:00:34.665Z,78.10
2022-12-01T01:03:01.582Z,77.83
2022-12-01T01:05:27.939Z,77.58
2022-12-01T01:07:54.427Z,77.27
2022-12-01T01:10:20.898Z,77.83
2022-12-01T01:12:47.272Z,77.82
2022-12-01T01:15:13.679Z,77.72
2022-12-01T01:17:40.072Z,77.87
2022-12-01T01:20:07.153Z,77.92
2022-12-01T01:22:35.123Z,78.21
2022-12-01T01:25:01.668Z,78.11
2022-12-01T01:27:28.196Z,77.51
2022-12-01T01:29:54.527Z,77.78
2022-12-01T01:32:20.958Z,77.41
2022-12-01T01:34:47.343Z,78.37
2022-12-01T01:37:13.740Z,78.02
2022-12-01T01:39:40.814Z,77.85
2022-12-01T01:42:12.490Z,77.98
2022-12-01T01:44:50.044Z,78.11
2022-12-01T01:47:22.089Z,78.15
2022-12-01T01:49:48.984Z,78.00
2022-12-01T01:52:16.281Z,78.15
2022-12-01T01:54:47.048Z,78.04
2022-12-01T01:57:20.631Z,78.27
2022-12-01T01:59:52.512Z,77.93
2022-12-01T02:02:18.982Z,77.90
2022-12-01T02:04:48.652Z,77.62
2022-12-01T02:07:18.663Z,77.79
2022-12-01T02:09:45.316Z,77.50
2022-12-01T02:12:36.089Z,77.79
2022-12-01T02:15:37.332Z,77.71
2022-12-01T02:18:26.506Z,77.41
2022-12-01T02:21:27.770Z,77.71
2022-12-01T02:24:26.406Z,77.64
2022-12-01T02:27:05.049Z,77.63
2022-12-01T02:29:41.641Z,77.49
2022-12-01T02:32:29.903Z,77.58
2022-12-01T02:35:14.584Z,77.45
2022-12-01T02:38:05.871Z,77.22
2022-12-01T02:40:41.370Z,77.52
2022-12-01T02:43:17.677Z,77.04
2022-12-01T02:45:53.631Z,77.10
2022-12-01T02:48:27.327Z,76.92
2022-12-01T02:50:57.983Z,77.42
2022-12-01T02:53:24.702Z,76.97
2022-12-01T02:55:57.702Z,76.84
2022-12-01T02:58:24.333Z,77.23
2022-12-01T03:01:20.128Z,76.75
2022-12-01T03:04:22.232Z,76.79
2022-12-01T03:07:10.695Z,77.08
2022-12-01T03:09:44.610Z,76.50
2022-12-01T03:12:23.537Z,77.07
2022-12-01T03:15:03.412Z,76.95
2022-12-01T03:17:43.279Z,76.52
2022-12-01T03:20:23.539Z,76.66
2022-12-01T03:22:55.503Z,76.46
2022-12-01T03:25:26.175Z,76.65
2022-12-01T03:28:20.327Z,76.63
2022-12-01T03:30:45.213Z,76.72
2022-12-01T03:33:19.122Z,76.66
2022-12-01T03:35:53.941Z,76.74
2022-12-01T03:38:28.871Z,76.32
2022-12-01T03:41:00.834Z,76.75
2022-12-01T03:43:33.369Z,76.41
2022-12-01T03:46:09.172Z,76.27
2022-12-01T03:48:36.892Z,76.21
2022-12-01T03:51:14.030Z,76.30
2022-12-01T03:54:09.579Z,76.07
2022-12-01T03:57:00.197Z,76.09
2022-12-01T03:59:29.397Z,76.18
2022-12-01T04:01:57.353Z,76.21
2022-12-01T04:04:24.503Z,76.44
2022-12-01T04:06:51.347Z,76.89
2022-12-01T04:09:17.928Z,76.70
2022-12-01T04:12:03.173Z,76.80
2022-12-01T04:14:30.140Z,76.44
2022-12-01T04:16:56.507Z,76.28
2022-12-01T04:19:23.886Z,76.11
2022-12-01T04:21:50.241Z,76.33
2022-12-01T04:24:16.751Z,76.14
2022-12-01T04:26:43.407Z,76.04
2022-12-01T04:29:10.853Z,76.10
2022-12-01T04:31:37.672Z,76.50
2022-12-01T04:34:04.603Z,76.04
2022-12-01T04:36:32.638Z,76.06
2022-12-01T04:38:59.208Z,76.14
2022-12-01T04:41:25.595Z,76.07
2022-12-01T04:43:55.807Z,76.13
2022-12-01T04:46:23.163Z,75.91
2022-12-01T04:48:49.591Z,75.95
2022-12-01T04:51:16.057Z,75.78
2022-12-01T04:53:42.496Z,76.00
2022-12-01T04:56:09.214Z,75.41
2022-12-01T04:58:37.611Z,75.93
2022-12-01T05:01:06.388Z,75.95
2022-12-01T05:03:36.614Z,76.28
2022-12-01T05:06:08.239Z,75.91
2022-12-01T05:08:35.859Z,75.83
2022-12-01T05:11:02.792Z,75.76
2022-12-01T05:13:29.305Z,75.97
2022-12-01T05:16:06.240Z,75.88
2022-12-01T05:18:32.914Z,75.84
2022-12-01T05:20:59.455Z,75.80
2022-12-01T05:23:27.630Z,75.74
2022-12-01T05:25:54.731Z,75.63
2022-12-01T05:28:23.390Z,75.67
2022-12-01T05:30:50.507Z,75.47
2022-12-01T05:33:17.350Z,75.75
2022-12-01T05:35:44.236Z,75.83
2022-12-01T05:38:11.064Z,76.25
2022-12-01T05:40:37.484Z,75.84
2022-12-01T05:43:04.503Z,75.92
2022-12-01T05:45:31.580Z,75.78
2022-12-01T05:47:59.760Z,75.57
2022-12-01T05:50:27.521Z,75.91
2022-12-01T05:52:55.288Z,75.80
2022-12-01T05:55:22.798Z,75.65
2022-12-01T05:57:49.270Z,75.66
2022-12-01T06:00:16.305Z,76.08
2022-12-01T06:02:42.875Z,75.96
2022-12-01T06:05:09.534Z,75.78
2022-12-01T06:07:35.936Z,76.09
2022-12-01T06:10:03.288Z,75.60
2022-12-01T06:12:29.634Z,75.44
2022-12-01T06:14:56.057Z,75.72
2022-12-01T06:17:22.410Z,75.20
2022-12-01T06:19:49.108Z,75.18
2022-12-01T06:22:15.686Z,75.57
2022-12-01T06:24:42.151Z,75.72
2022-12-01T06:27:08.549Z,75.54
2022-12-01T06:29:40.582Z,75.57
2022-12-01T06:32:09.478Z,75.37
2022-12-01T06:34:35.861Z,75.54
2022-12-01T06:37:02.243Z,75.47
2022-12-01T06:39:28.695Z,75.38
2022-12-01T06:41:55.134Z,75.32
2022-12-01T06:44:21.479Z,75.09
2022-12-01T06:46:52.699Z,75.68
2022-12-01T06:49:19.705Z,75.20
2022-12-01T06:51:46.375Z,75.22
2022-12-01T06:54:12.827Z,75.21
2022-12-01T06:56:39.500Z,75.04
2022-12-01T06:59:06.195Z,75.16
2022-12-01T07:01:33.072Z,75.08
2022-12-01T07:03:59.567Z,74.53
2022-12-01T07:06:26.127Z,74.57
2022-12-01T07:08:53.074Z,75.36
2022-12-01T07:11:19.485Z,75.32
2022-12-01T07:13:46.007Z,75.34
2022-12-01T07:16:12.928Z,75.26
2022-12-01T07:18:40.383Z,75.69
2022-12-01T07:21:10.116Z,75.47
2022-12-01T07:23:36.578Z,74.76
2022-12-01T07:26:11.113Z,74.86
2022-12-01T07:28:37.645Z,74.86
2022-12-01T07:31:06.182Z,74.71
2022-12-01T07:33:32.755Z,75.01
2022-12-01T07:35:59.131Z,74.90
2022-12-01T07:38:27.680Z,74.73
2022-12-01T07:40:54.111Z,75.11
2022-12-01T07:43:20.487Z,74.90
2022-12-01T07:45:47.172Z,74.96
2022-12-01T07:48:13.648Z,75.06
2022-12-01T07:50:40.057Z,74.96
2022-12-01T07:53:06.730Z,74.57
2022-12-01T07:55:33.251Z,74.38
2022-12-01T07:58:00.688Z,74.29
2022-12-01T08:00:27.232Z,74.60
2022-12-01T08:02:53.597Z,74.39
2022-12-01T08:05:20.003Z,74.52
2022-12-01T08:07:46.431Z,74.00
2022-12-01T08:10:12.838Z,74.52
2022-12-01T08:12:39.200Z,74.73
2022-12-01T08:15:06.021Z,74.52
2022-12-01T08:17:32.446Z,74.16
2022-12-01T08:19:58.792Z,74.24
2022-12-01T08:22:25.217Z,73.83
2022-12-01T08:24:51.545Z,74.00
2022-12-01T08:27:17.982Z,74.02
2022-12-01T08:29:44.419Z,73.65
2022-12-01T08:32:10.838Z,73.92
2022-12-01T08:34:38.554Z,73.48
2022-12-01T08:37:04.947Z,73.32
2022-12-01T08:39:31.378Z,72.95
2022-12-01T08:41:57.814Z,73.14
2022-12-01T08:44:24.257Z,73.28
2022-12-01T08:46:50.718Z,73.81
2022-12-01T08:49:17.323Z,73.65
2022-12-01T08:51:43.748Z,73.38
2022-12-01T08:54:12.161Z,73.28
2022-12-01T08:56:42.174Z,73.10
2022-12-01T08:59:09.008Z,72.95
2022-12-01T09:01:51.551Z,72.92
2022-12-01T09:04:19.889Z,72.61
2022-12-01T09:06:48.192Z,72.14
2022-12-01T09:09:20.937Z,72.38
2022-12-01T09:11:47.878Z,72.26
2022-12-01T09:14:16.535Z,72.10
2022-12-01T09:16:44.854Z,72.24
2022-12-01T09:19:13.183Z,71.81
2022-12-01T09:21:42.634Z,71.70
2022-12-01T09:24:13.807Z,71.58
2022-12-01T09:26:40.872Z,71.27
2022-12-01T09:29:10.302Z,71.64
2022-12-01T09:31:37.871Z,71.36
2022-12-01T09:34:07.090Z,71.27
2022-12-01T09:36:35.200Z,71.38
2022-12-01T09:39:02.205Z,71.55
2022-12-01T09:41:35.485Z,71.67
2022-12-01T09:44:15.161Z,71.73
2022-12-01T09:46:49.782Z,72.01
2022-12-01T09:49:23.786Z,71.98
2022-12-01T09:51:52.466Z,72.11
2022-12-01T09:54:18.929Z,71.47
2022-12-01T09:56:50.201Z,71.88
2022-12-01T09:59:20.692Z,71.92
2022-12-01T10:01:50.895Z,71.94
2022-12-01T10:04:22.766Z,71.46
2022-12-01T10:06:57.902Z,71.84
2022-12-01T10:09:48.600Z,71.77
2022-12-01T10:12:18.117Z,72.14
2022-12-01T10:14:46.392Z,71.77
2022-12-01T10:17:28.255Z,71.78
2022-12-01T10:20:03.388Z,71.33
2022-12-01T10:22:49.245Z,71.43
2022-12-01T10:25:24.772Z,71.45
2022-12-01T10:28:12.463Z,71.75
2022-12-01T10:30:49.759Z,71.74
2022-12-01T10:33:24.810Z,71.78
2022-12-01T10:35:51.715Z,71.66
2022-12-01T10:38:27.822Z,71.33
2022-12-01T10:40:58.443Z,71.32
2022-12-01T10:43:37.523Z,71.06
2022-12-01T10:46:19.714Z,70.86
2022-12-01T10:48:57.762Z,70.58
2022-12-01T10:51:25.716Z,70.30
2022-12-01T10:54:07.074Z,70.63
2022-12-01T10:56:33.969Z,70.29
2022-12-01T10:59:16.923Z,70.39
2022-12-01T11:01:48.170Z,69.87
2022-12-01T11:04:29.557Z,70.34
2022-12-01T11:06:56.890Z,70.28
2022-12-01T11:09:28.966Z,70.35
2022-12-01T11:12:01.040Z,70.29
2022-12-01T11:14:46.507Z,70.77
2022-12-01T11:17:22.368Z,70.62
2022-12-01T11:19:49.272Z,71.35
2022-12-01T11:22:25.371Z,71.07
2022-12-01T11:24:59.693Z,70.96
2022-12-01T11:27:30.471Z,70.97
2022-12-01T11:30:04.954Z,70.79
2022-12-01T11:32:35.366Z,71.30
2022-12-01T11:35:14.212Z,71.05
2022-12-01T11:38:13.310Z,70.94
2022-12-01T11:40:45.838Z,71.43
2022-12-01T11:43:23.377Z,71.50
2022-12-01T11:45:50.207Z,71.22
2022-12-01T11:48:29.710Z,71.49
2022-12-01T11:51:20.244Z,71.17
2022-12-01T11:54:23.496Z,71.13
2022-12-01T11:57:17.363Z,71.15
2022-12-01T11:59:38.305Z,70.76
2022-12-01T12:02:20.932Z,70.76
2022-12-01T12:05:18.208Z,70.69
2022-12-01T12:08:05.614Z,70.95
2022-12-01T12:10:44.001Z,70.33
2022-12-01T12:13:25.195Z,70.92
2022-12-01T12:16:19.799Z,70.95
2022-12-01T12:19:28.968Z,70.75
2022-12-01T12:22:11.956Z,70.74
2022-12-01T12:24:48.793Z,70.48
2022-12-01T12:27:29.278Z,70.69
2022-12-01T12:30:26.132Z,70.24
2022-12-01T12:33:33.319Z,70.91
2022-12-01T12:36:38.633Z,71.10
2022-12-01T12:39:36.735Z,70.48
2022-12-01T12:42:14.721Z,70.44
2022-12-01T12:44:51.573Z,71.08
2022-12-01T12:47:50.992Z,71.14
2022-12-01T12:50:31.946Z,70.89
2022-12-01T12:53:04.562Z,70.95
2022-12-01T12:55:39.744Z,70.93
2022-12-01T12:58:26.910Z,71.10
2022-12-01T13:01:03.424Z,71.15
2022-12-01T13:03:49.031Z,71.11
2022-12-01T13:06:25.795Z,71.32
2022-12-01T13:08:59.153Z,70.96
2022-12-01T13:11:40.093Z,71.67
2022-12-01T13:14:15.629Z,71.55
2022-12-01T13:16:46.392Z,71.51
2022-12-01T13:19:16.589Z,71.59
2022-12-01T13:21:46.842Z,71.32
2022-12-01T13:24:23.388Z,71.51
2022-12-01T13:26:55.978Z,71.83
2022-12-01T13:29:25.486Z,71.38
2022-12-01T13:31:53.722Z,71.39
2022-12-01T13:34:39.707Z,71.48
2022-12-01T13:37:08.918Z,71.13
2022-12-01T13:39:40.853Z,71.47
2022-12-01T13:42:35.064Z,71.27
2022-12-01T13:45:10.426Z,71.35
2022-12-01T13:47:51.381Z,71.35
2022-12-01T13:50:36.159Z,71.41
2022-12-01T13:53:17.783Z,71.29
2022-12-01T13:56:16.459Z,71.54
2022-12-01T13:58:53.183Z,71.54
2022-12-01T14:01:19.860Z,71.28
2022-12-01T14:04:11.222Z,71.18
2022-12-01T14:06:49.266Z,71.14
2022-12-01T14:09:33.236Z,71.77
2022-12-01T14:12:06.341Z,71.67
2022-12-01T14:14:36.961Z,71.15
2022-12-01T14:17:04.517Z,71.12
2022-12-01T14:19:39.371Z,71.22
2022-12-01T14:22:07.610Z,71.15
2022-12-01T14:24:43.482Z,70.92
2022-12-01T14:27:11.883Z,71.14
2022-12-01T14:29:42.957Z,70.79
2022-12-01T14:32:09.366Z,71.13
2022-12-01T14:34:39.452Z,70.84
2022-12-01T14:37:20.833Z,70.85
2022-12-01T14:39:58.086Z,71.20
2022-12-01T14:42:51.897Z,71.15
2022-12-01T14:45:34.134Z,70.50
2022-12-01T14:48:04.260Z,71.25
2022-12-01T14:51:10.587Z,71.30
2022-12-01T14:53:41.865Z,71.14
2022-12-01T14:56:16.166Z,70.42
2022-12-01T14:59:00.537Z,70.74
2022-12-01T15:01:33.908Z,71.21
2022-12-01T15:04:03.201Z,70.46
2022-12-01T15:06:31.991Z,70.94
2022-12-01T15:12:07.514Z,70.60
2022-12-01T15:14:47.079Z,70.21
2022-12-01T15:17:31.083Z,71.33
2022-12-01T15:19:58.598Z,71.01
2022-12-01T15:22:30.532Z,71.18
2022-12-01T15:25:15.141Z,71.14
2022-12-01T15:27:43.158Z,71.02
2022-12-01T15:30:14.456Z,70.90
2022-12-01T15:32:45.607Z,70.71
2022-12-01T15:35:20.549Z,70.46
2022-12-01T15:37:47.484Z,71.10
2022-12-01T15:43:14.330Z,70.12
2022-12-01T15:46:09.841Z,70.41
2022-12-01T15:48:37.190Z,71.09
2022-12-01T15:51:09.895Z,70.46
2022-12-01T15:53:39.870Z,71.23
2022-12-01T15:56:09.016Z,70.65
2022-12-01T15:58:42.067Z,70.68
2022-12-01T16:01:12.970Z,71.08
2022-12-01T16:03:52.414Z,71.33
2022-12-01T16:06:20.928Z,71.34
2022-12-01T16:09:18.816Z,70.66
2022-12-01T16:12:18.703Z,71.27
2022-12-01T16:14:54.489Z,71.09
2022-12-01T16:17:22.158Z,70.83
2022-12-01T16:19:48.595Z,71.00
2022-12-01T16:22:20.110Z,71.03
2022-12-01T16:24:51.362Z,71.54
2022-12-01T16:27:25.151Z,71.27
2022-12-01T16:29:59.012Z,71.97
2022-12-01T16:32:25.403Z,71.56
2022-12-01T16:34:52.838Z,71.55
2022-12-01T16:37:21.437Z,71.71
2022-12-01T16:39:48.234Z,72.00
2022-12-01T16:42:16.691Z,71.19
2022-12-01T16:44:44.552Z,71.30
2022-12-01T16:47:25.244Z,71.98
2022-12-01T16:49:52.392Z,71.65
2022-12-01T16:55:18.962Z,71.96
2022-12-01T16:57:45.396Z,71.11
2022-12-01T17:00:12.268Z,71.49
2022-12-01T17:02:38.700Z,72.06
2022-12-01T17:05:05.302Z,71.40
2022-12-01T17:07:31.843Z,72.34
2022-12-01T17:09:58.317Z,71.27
2022-12-01T17:12:26.636Z,71.46
2022-12-01T17:14:53.037Z,72.04
2022-12-01T17:17:19.396Z,72.10
2022-12-01T17:19:45.860Z,72.50
2022-12-01T17:22:12.278Z,71.95
2022-12-01T17:24:39.015Z,71.08
2022-12-01T17:27:05.483Z,71.54
2022-12-01T17:29:31.871Z,71.63
2022-12-01T17:31:58.297Z,71.29
2022-12-01T17:34:24.763Z,71.23
2022-12-01T17:36:52.532Z,71.42
2022-12-01T17:39:19.382Z,71.14
2022-12-01T17:41:45.826Z,71.10
2022-12-01T17:44:12.348Z,70.95
2022-12-01T17:46:38.841Z,71.23
2022-12-01T17:49:09.307Z,71.62
2022-12-01T17:51:36.624Z,71.10
2022-12-01T17:54:03.275Z,71.22
2022-12-01T17:56:29.767Z,71.09
2022-12-01T17:58:56.356Z,71.72
2022-12-01T18:01:28.453Z,71.75
2022-12-01T18:03:58.174Z,71.46
2022-12-01T18:06:25.634Z,71.04
2022-12-01T18:08:53.095Z,71.79
2022-12-01T18:11:20.347Z,70.88
2022-12-01T18:13:48.733Z,71.57
2022-12-01T18:16:24.970Z,71.07
2022-12-01T18:18:52.207Z,71.27
2022-12-01T18:21:21.086Z,70.87
2022-12-01T18:23:58.301Z,70.75
2022-12-01T18:26:26.461Z,70.69
2022-12-01T18:28:54.702Z,70.91
2022-12-01T18:31:21.237Z,70.89
2022-12-01T18:33:47.712Z,70.69
2022-12-01T18:36:20.493Z,70.84
2022-12-01T18:38:47.574Z,70.17
2022-12-01T18:41:14.631Z,70.14
2022-12-01T18:43:41.303Z,70.38
2022-12-01T18:46:08.849Z,70.46
2022-12-01T18:48:35.473Z,70.76
2022-12-01T18:51:04.546Z,70.21
2022-12-01T18:53:31.467Z,69.96
2022-12-01T18:56:02.594Z,69.79
2022-12-01T18:58:29.668Z,69.87
2022-12-01T19:00:56.135Z,69.70
2022-12-01T19:03:22.631Z,70.15
2022-12-01T19:05:49.214Z,70.50
2022-12-01T19:08:15.618Z,70.18
2022-12-01T19:10:42.159Z,69.99
2022-12-01T19:13:08.569Z,70.18
2022-12-01T19:15:36.954Z,70.36
2022-12-01T19:18:03.448Z,69.94
2022-12-01T19:20:29.923Z,70.17
2022-12-01T19:22:56.349Z,70.18
2022-12-01T19:25:22.704Z,69.36
2022-12-01T19:27:51.064Z,69.50
2022-12-01T19:30:17.599Z,69.49
2022-12-01T19:32:44.282Z,69.59
2022-12-01T19:35:11.059Z,69.35
2022-12-01T19:37:37.439Z,69.55
2022-12-01T19:40:05.339Z,69.83
2022-12-01T19:42:32.097Z,69.92
2022-12-01T19:44:59.454Z,69.55
2022-12-01T19:47:25.795Z,69.54
2022-12-01T19:49:52.507Z,69.29
2022-12-01T19:52:18.839Z,70.04
2022-12-01T19:54:49.692Z,69.81
2022-12-01T19:57:16.286Z,69.72
2022-12-01T19:59:42.633Z,70.17
2022-12-01T20:02:10.530Z,69.97
2022-12-01T20:04:38.763Z,69.77
2022-12-01T20:07:05.723Z,69.85
2022-12-01T20:09:32.241Z,69.35
2022-12-01T20:11:58.602Z,69.81
2022-12-01T20:14:25.082Z,69.33
2022-12-01T20:16:54.648Z,70.06
2022-12-01T20:19:21.234Z,69.21
2022-12-01T20:21:48.496Z,69.42
2022-12-01T20:24:18.524Z,69.56
2022-12-01T20:26:48.127Z,70.76
2022-12-01T20:29:17.612Z,70.18
2022-12-01T20:31:44.822Z,69.79
2022-12-01T20:34:18.178Z,69.72
2022-12-01T20:36:44.806Z,70.25
2022-12-01T20:39:11.743Z,70.08
2022-12-01T20:41:39.706Z,70.30
2022-12-01T20:44:07.678Z,69.97
2022-12-01T20:46:35.759Z,70.08
2022-12-01T20:49:02.195Z,70.03
2022-12-01T20:51:28.537Z,70.69
2022-12-01T20:54:26.206Z,71.01
2022-12-01T20:56:41.346Z,70.47
2022-12-01T20:59:07.891Z,69.74
2022-12-01T21:01:34.460Z,70.14
2022-12-01T21:04:00.959Z,69.54
2022-12-01T21:06:29.029Z,70.49
2022-12-01T21:08:55.589Z,69.19
2022-12-01T21:11:47.424Z,69.90
2022-12-01T21:14:25.852Z,68.92
2022-12-01T21:16:56.586Z,68.97
2022-12-01T21:19:30.424Z,68.91
2022-12-01T21:21:58.212Z,69.34
2022-12-01T21:24:33.523Z,69.52
2022-12-01T21:27:12.593Z,69.89
2022-12-01T21:29:49.436Z,69.27
2022-12-01T21:32:20.863Z,69.10
2022-12-01T21:34:48.055Z,69.17
2022-12-01T21:37:21.783Z,69.51
2022-12-01T21:39:52.753Z,69.75
2022-12-01T21:42:22.018Z,69.35
2022-12-01T21:44:49.259Z,69.79
2022-12-01T21:47:20.629Z,69.30
2022-12-01T21:49:50.529Z,69.32
2022-12-01T21:52:20.088Z,68.80
2022-12-01T21:54:47.044Z,68.92
2022-12-01T21:57:39.784Z,69.42
2022-12-01T22:00:35.620Z,69.40
2022-12-01T22:03:08.003Z,69.66
2022-12-01T22:05:40.317Z,69.73
2022-12-01T22:08:32.346Z,69.12
2022-12-01T22:11:20.828Z,68.57
2022-12-01T22:13:50.419Z,69.28
2022-12-01T22:16:21.122Z,68.83
2022-12-01T22:18:51.712Z,69.03
2022-12-01T22:21:23.930Z,68.35
2022-12-01T22:24:01.010Z,69.04
2022-12-01T22:26:27.824Z,68.97
2022-12-01T22:28:57.886Z,68.92
2022-12-01T22:31:24.363Z,68.90
2022-12-01T22:34:00.127Z,68.83
2022-12-01T22:36:31.363Z,68.80
2022-12-01T22:38:58.057Z,68.02
2022-12-01T22:41:24.731Z,69.10
2022-12-01T22:43:55.926Z,69.12
2022-12-01T22:46:26.854Z,68.95
2022-12-01T22:49:19.389Z,68.62
2022-12-01T22:52:02.127Z,68.42
2022-12-01T22:54:34.609Z,68.12
2022-12-01T22:57:05.148Z,68.05
2022-12-01T22:59:35.460Z,68.52
2022-12-01T23:02:14.401Z,68.65
2022-12-01T23:04:45.114Z,68.94
2022-12-01T23:07:26.488Z,68.77
2022-12-01T23:09:53.115Z,68.88
2022-12-01T23:12:30.697Z,68.53
2022-12-01T23:15:00.769Z,68.85
2022-12-01T23:17:29.626Z,68.54
2022-12-01T23:20:32.136Z,68.90
2022-12-01T23:23:05.014Z,68.44
2022-12-01T23:25:31.872Z,67.93
2022-12-01T23:28:02.743Z,67.83
2022-12-01T23:30:29.356Z,68.27
2022-12-01T23:33:03.894Z,67.95
2022-12-01T23:35:39.011Z,68.89
2022-12-01T23:38:05.501Z,68.35
2022-12-01T23:40:36.109Z,68.62
2022-12-01T23:43:26.763Z,68.68
2022-12-01T23:46:06.610Z,67.99
2022-12-01T23:48:41.558Z,68.55
2022-12-01T23:51:25.354Z,68.87
2022-12-01T23:53:53.735Z,68.55
2022-12-01T23:56:22.977Z,68.87
2022-12-01T23:58:50.477Z,68.26
